sensor_id;sensor_type;location;lat;lon;timestamp;P1;durP1;ratioP1;P2;durP2;ratioP2
6376;SDS011;3221;48.858;10.128;2023-12-20T00:02:13;3.40;;;3.10;;
6376;SDS011;3221;48.858;10.128;2023-12-20T00:04:40;3.20;;;2.90;;
6376;SDS011;3221;48.858;10.128;2023-12-20T00:07:07;3.67;;;2.87;;
6376;SDS011;3221;48.858;10.128;2023-12-20T00:09:34;3.13;;;2.83;;
6376;SDS011;3221;48.858;10.128;2023-12-20T00:12:01;3.87;;;3.10;;
6376;SDS011;3221;48.858;10.128;2023-12-20T00:14:28;3.23;;;2.93;;
6376;SDS011;3221;48.858;10.128;2023-12-20T00:16:55;3.17;;;2.73;;
6376;SDS011;3221;48.858;10.128;2023-12-20T00:19:22;3.13;;;2.77;;
6376;SDS011;3221;48.858;10.128;2023-12-20T00:21:49;3.67;;;2.60;;
6376;SDS011;3221;48.858;10.128;2023-12-20T00:24:16;2.70;;;2.50;;
6376;SDS011;3221;48.858;10.128;2023-12-20T00:26:44;2.93;;;2.60;;
6376;SDS011;3221;48.858;10.128;2023-12-20T00:29:11;3.70;;;2.60;;
6376;SDS011;3221;48.858;10.128;2023-12-20T00:31:38;3.43;;;2.83;;
6376;SDS011;3221;48.858;10.128;2023-12-20T00:34:04;4.43;;;2.80;;
6376;SDS011;3221;48.858;10.128;2023-12-20T00:36:31;3.23;;;2.70;;
6376;SDS011;3221;48.858;10.128;2023-12-20T00:38:58;3.47;;;2.90;;
6376;SDS011;3221;48.858;10.128;2023-12-20T00:41:25;2.77;;;2.53;;
6376;SDS011;3221;48.858;10.128;2023-12-20T00:43:52;3.37;;;2.93;;
6376;SDS011;3221;48.858;10.128;2023-12-20T00:46:19;4.57;;;3.33;;
6376;SDS011;3221;48.858;10.128;2023-12-20T00:48:46;4.20;;;3.40;;
6376;SDS011;3221;48.858;10.128;2023-12-20T00:51:13;4.93;;;3.27;;
6376;SDS011;3221;48.858;10.128;2023-12-20T00:53:40;4.47;;;3.00;;
6376;SDS011;3221;48.858;10.128;2023-12-20T00:56:07;4.40;;;3.50;;
6376;SDS011;3221;48.858;10.128;2023-12-20T00:58:34;3.73;;;3.10;;
6376;SDS011;3221;48.858;10.128;2023-12-20T01:01:01;4.67;;;3.33;;
6376;SDS011;3221;48.858;10.128;2023-12-20T01:03:28;4.03;;;3.33;;
6376;SDS011;3221;48.858;10.128;2023-12-20T01:05:55;3.40;;;2.90;;
6376;SDS011;3221;48.858;10.128;2023-12-20T01:08:22;3.33;;;2.73;;
6376;SDS011;3221;48.858;10.128;2023-12-20T01:10:49;3.10;;;2.80;;
6376;SDS011;3221;48.858;10.128;2023-12-20T01:13:16;3.17;;;2.40;;
6376;SDS011;3221;48.858;10.128;2023-12-20T01:15:43;2.40;;;2.20;;
6376;SDS011;3221;48.858;10.128;2023-12-20T01:18:10;3.10;;;2.80;;
6376;SDS011;3221;48.858;10.128;2023-12-20T01:20:37;3.93;;;2.80;;
6376;SDS011;3221;48.858;10.128;2023-12-20T01:23:05;3.20;;;2.13;;
6376;SDS011;3221;48.858;10.128;2023-12-20T01:25:33;2.80;;;2.43;;
6376;SDS011;3221;48.858;10.128;2023-12-20T01:27:59;3.23;;;2.50;;
6376;SDS011;3221;48.858;10.128;2023-12-20T01:30:26;3.80;;;3.00;;
6376;SDS011;3221;48.858;10.128;2023-12-20T01:32:55;4.10;;;3.30;;
6376;SDS011;3221;48.858;10.128;2023-12-20T01:35:21;3.93;;;3.43;;
6376;SDS011;3221;48.858;10.128;2023-12-20T01:37:48;3.67;;;2.80;;
6376;SDS011;3221;48.858;10.128;2023-12-20T01:40:15;3.50;;;3.00;;
6376;SDS011;3221;48.858;10.128;2023-12-20T01:42:43;3.00;;;2.70;;
6376;SDS011;3221;48.858;10.128;2023-12-20T01:45:09;3.37;;;2.80;;
6376;SDS011;3221;48.858;10.128;2023-12-20T01:47:36;2.53;;;2.33;;
6376;SDS011;3221;48.858;10.128;2023-12-20T01:50:04;2.73;;;2.50;;
6376;SDS011;3221;48.858;10.128;2023-12-20T01:52:34;3.17;;;2.33;;
6376;SDS011;3221;48.858;10.128;2023-12-20T01:55:01;2.93;;;2.40;;
6376;SDS011;3221;48.858;10.128;2023-12-20T01:57:30;3.23;;;1.90;;
6376;SDS011;3221;48.858;10.128;2023-12-20T01:59:58;2.20;;;2.00;;
6376;SDS011;3221;48.858;10.128;2023-12-20T02:02:25;3.23;;;2.07;;
6376;SDS011;3221;48.858;10.128;2023-12-20T02:04:55;2.30;;;2.10;;
6376;SDS011;3221;48.858;10.128;2023-12-20T02:07:22;1.97;;;1.77;;
6376;SDS011;3221;48.858;10.128;2023-12-20T02:09:51;2.33;;;2.13;;
6376;SDS011;3221;48.858;10.128;2023-12-20T02:12:18;2.30;;;1.87;;
6376;SDS011;3221;48.858;10.128;2023-12-20T02:14:46;2.47;;;1.80;;
6376;SDS011;3221;48.858;10.128;2023-12-20T02:17:13;2.13;;;1.93;;
6376;SDS011;3221;48.858;10.128;2023-12-20T02:19:40;2.20;;;2.00;;
6376;SDS011;3221;48.858;10.128;2023-12-20T02:22:08;2.53;;;2.03;;
6376;SDS011;3221;48.858;10.128;2023-12-20T02:24:38;2.00;;;1.90;;
6376;SDS011;3221;48.858;10.128;2023-12-20T02:27:06;3.10;;;1.80;;
6376;SDS011;3221;48.858;10.128;2023-12-20T02:29:34;2.30;;;2.00;;
6376;SDS011;3221;48.858;10.128;2023-12-20T02:32:01;1.97;;;1.70;;
6376;SDS011;3221;48.858;10.128;2023-12-20T02:34:29;4.33;;;2.00;;
6376;SDS011;3221;48.858;10.128;2023-12-20T02:36:56;2.27;;;2.07;;
6376;SDS011;3221;48.858;10.128;2023-12-20T02:39:23;2.23;;;1.90;;
6376;SDS011;3221;48.858;10.128;2023-12-20T02:41:49;1.90;;;1.77;;
6376;SDS011;3221;48.858;10.128;2023-12-20T02:44:16;2.40;;;1.70;;
6376;SDS011;3221;48.858;10.128;2023-12-20T02:46:43;1.90;;;1.80;;
6376;SDS011;3221;48.858;10.128;2023-12-20T02:49:10;2.27;;;1.70;;
6376;SDS011;3221;48.858;10.128;2023-12-20T02:51:38;3.40;;;1.80;;
6376;SDS011;3221;48.858;10.128;2023-12-20T02:54:05;1.57;;;1.47;;
6376;SDS011;3221;48.858;10.128;2023-12-20T02:56:32;1.90;;;1.63;;
6376;SDS011;3221;48.858;10.128;2023-12-20T02:58:59;2.17;;;1.97;;
6376;SDS011;3221;48.858;10.128;2023-12-20T03:01:27;1.93;;;1.73;;
6376;SDS011;3221;48.858;10.128;2023-12-20T03:03:56;3.00;;;1.73;;
6376;SDS011;3221;48.858;10.128;2023-12-20T03:06:23;2.33;;;1.80;;
6376;SDS011;3221;48.858;10.128;2023-12-20T03:08:51;2.10;;;1.90;;
6376;SDS011;3221;48.858;10.128;2023-12-20T03:11:18;2.40;;;2.20;;
6376;SDS011;3221;48.858;10.128;2023-12-20T03:13:45;2.03;;;1.83;;
6376;SDS011;3221;48.858;10.128;2023-12-20T03:16:12;2.80;;;2.37;;
6376;SDS011;3221;48.858;10.128;2023-12-20T03:18:40;3.40;;;2.20;;
6376;SDS011;3221;48.858;10.128;2023-12-20T03:21:07;3.60;;;1.93;;
6376;SDS011;3221;48.858;10.128;2023-12-20T03:23:34;4.17;;;2.27;;
6376;SDS011;3221;48.858;10.128;2023-12-20T03:26:01;3.60;;;2.40;;
6376;SDS011;3221;48.858;10.128;2023-12-20T03:28:27;2.70;;;1.93;;
6376;SDS011;3221;48.858;10.128;2023-12-20T03:30:54;2.30;;;2.03;;
6376;SDS011;3221;48.858;10.128;2023-12-20T03:33:22;2.20;;;1.90;;
6376;SDS011;3221;48.858;10.128;2023-12-20T03:35:49;2.10;;;1.90;;
6376;SDS011;3221;48.858;10.128;2023-12-20T03:38:15;2.73;;;1.90;;
6376;SDS011;3221;48.858;10.128;2023-12-20T03:40:42;2.20;;;2.00;;
6376;SDS011;3221;48.858;10.128;2023-12-20T03:43:09;1.70;;;1.60;;
6376;SDS011;3221;48.858;10.128;2023-12-20T03:45:36;1.90;;;1.80;;
6376;SDS011;3221;48.858;10.128;2023-12-20T03:48:04;1.50;;;1.40;;
6376;SDS011;3221;48.858;10.128;2023-12-20T03:50:31;1.70;;;1.57;;
6376;SDS011;3221;48.858;10.128;2023-12-20T03:52:58;1.83;;;1.73;;
6376;SDS011;3221;48.858;10.128;2023-12-20T03:55:25;1.57;;;1.47;;
6376;SDS011;3221;48.858;10.128;2023-12-20T03:57:52;1.53;;;1.40;;
6376;SDS011;3221;48.858;10.128;2023-12-20T04:00:19;1.30;;;1.20;;
6376;SDS011;3221;48.858;10.128;2023-12-20T04:02:46;1.20;;;1.10;;
6376;SDS011;3221;48.858;10.128;2023-12-20T04:05:13;1.43;;;1.07;;
6376;SDS011;3221;48.858;10.128;2023-12-20T04:07:41;1.00;;;1.00;;
6376;SDS011;3221;48.858;10.128;2023-12-20T04:10:08;1.00;;;1.00;;
6376;SDS011;3221;48.858;10.128;2023-12-20T04:12:35;1.10;;;1.00;;
6376;SDS011;3221;48.858;10.128;2023-12-20T04:15:02;0.80;;;0.80;;
6376;SDS011;3221;48.858;10.128;2023-12-20T04:17:35;1.00;;;1.00;;
6376;SDS011;3221;48.858;10.128;2023-12-20T04:20:03;1.00;;;1.00;;
6376;SDS011;3221;48.858;10.128;2023-12-20T04:22:30;0.90;;;0.90;;
6376;SDS011;3221;48.858;10.128;2023-12-20T04:24:57;1.57;;;1.00;;
6376;SDS011;3221;48.858;10.128;2023-12-20T04:27:24;0.77;;;0.77;;
6376;SDS011;3221;48.858;10.128;2023-12-20T04:29:51;1.37;;;0.90;;
6376;SDS011;3221;48.858;10.128;2023-12-20T04:32:18;0.90;;;0.80;;
6376;SDS011;3221;48.858;10.128;2023-12-20T04:34:45;0.93;;;0.87;;
6376;SDS011;3221;48.858;10.128;2023-12-20T04:37:12;0.80;;;0.80;;
6376;SDS011;3221;48.858;10.128;2023-12-20T04:39:39;0.93;;;0.93;;
6376;SDS011;3221;48.858;10.128;2023-12-20T04:42:07;0.90;;;0.90;;
6376;SDS011;3221;48.858;10.128;2023-12-20T04:44:34;1.33;;;1.10;;
6376;SDS011;3221;48.858;10.128;2023-12-20T04:47:01;1.30;;;1.20;;
6376;SDS011;3221;48.858;10.128;2023-12-20T04:49:28;1.30;;;1.20;;
6376;SDS011;3221;48.858;10.128;2023-12-20T04:51:55;1.73;;;1.13;;
6376;SDS011;3221;48.858;10.128;2023-12-20T04:54:23;1.07;;;1.00;;
6376;SDS011;3221;48.858;10.128;2023-12-20T04:56:49;1.30;;;1.20;;
6376;SDS011;3221;48.858;10.128;2023-12-20T04:59:16;1.10;;;1.00;;
6376;SDS011;3221;48.858;10.128;2023-12-20T05:01:43;1.10;;;1.00;;
6376;SDS011;3221;48.858;10.128;2023-12-20T05:04:10;1.57;;;1.00;;
6376;SDS011;3221;48.858;10.128;2023-12-20T05:06:37;1.17;;;1.10;;
6376;SDS011;3221;48.858;10.128;2023-12-20T05:09:04;0.83;;;0.83;;
6376;SDS011;3221;48.858;10.128;2023-12-20T05:11:31;0.77;;;0.77;;
6376;SDS011;3221;48.858;10.128;2023-12-20T05:13:58;0.80;;;0.80;;
6376;SDS011;3221;48.858;10.128;2023-12-20T05:16:25;0.80;;;0.80;;
6376;SDS011;3221;48.858;10.128;2023-12-20T05:18:52;1.50;;;0.70;;
6376;SDS011;3221;48.858;10.128;2023-12-20T05:21:19;0.70;;;0.70;;
6376;SDS011;3221;48.858;10.128;2023-12-20T05:23:46;0.70;;;0.70;;
6376;SDS011;3221;48.858;10.128;2023-12-20T05:26:13;0.83;;;0.83;;
6376;SDS011;3221;48.858;10.128;2023-12-20T05:28:40;0.67;;;0.67;;
6376;SDS011;3221;48.858;10.128;2023-12-20T05:31:07;0.93;;;0.70;;
6376;SDS011;3221;48.858;10.128;2023-12-20T05:33:34;0.80;;;0.80;;
6376;SDS011;3221;48.858;10.128;2023-12-20T05:36:01;0.77;;;0.77;;
6376;SDS011;3221;48.858;10.128;2023-12-20T05:38:28;1.10;;;1.00;;
6376;SDS011;3221;48.858;10.128;2023-12-20T05:40:55;0.80;;;0.80;;
6376;SDS011;3221;48.858;10.128;2023-12-20T05:43:21;1.43;;;0.90;;
6376;SDS011;3221;48.858;10.128;2023-12-20T05:45:48;0.80;;;0.80;;
6376;SDS011;3221;48.858;10.128;2023-12-20T05:48:15;0.70;;;0.70;;
6376;SDS011;3221;48.858;10.128;2023-12-20T05:50:43;1.40;;;1.20;;
6376;SDS011;3221;48.858;10.128;2023-12-20T05:53:09;0.90;;;0.90;;
6376;SDS011;3221;48.858;10.128;2023-12-20T05:55:36;0.90;;;0.90;;
6376;SDS011;3221;48.858;10.128;2023-12-20T05:58:03;1.00;;;1.00;;
6376;SDS011;3221;48.858;10.128;2023-12-20T06:00:31;1.50;;;1.40;;
6376;SDS011;3221;48.858;10.128;2023-12-20T06:02:58;2.10;;;1.40;;
6376;SDS011;3221;48.858;10.128;2023-12-20T06:05:25;1.60;;;1.50;;
6376;SDS011;3221;48.858;10.128;2023-12-20T06:07:52;2.00;;;1.80;;
6376;SDS011;3221;48.858;10.128;2023-12-20T06:10:19;1.60;;;1.50;;
6376;SDS011;3221;48.858;10.128;2023-12-20T06:12:46;1.70;;;1.60;;
6376;SDS011;3221;48.858;10.128;2023-12-20T06:15:16;1.40;;;1.30;;
6376;SDS011;3221;48.858;10.128;2023-12-20T06:17:43;1.70;;;1.60;;
6376;SDS011;3221;48.858;10.128;2023-12-20T06:20:10;1.87;;;1.77;;
6376;SDS011;3221;48.858;10.128;2023-12-20T06:22:37;1.80;;;1.70;;
6376;SDS011;3221;48.858;10.128;2023-12-20T06:25:05;2.00;;;1.90;;
6376;SDS011;3221;48.858;10.128;2023-12-20T06:27:33;1.90;;;1.80;;
6376;SDS011;3221;48.858;10.128;2023-12-20T06:30:00;2.07;;;1.97;;
6376;SDS011;3221;48.858;10.128;2023-12-20T06:32:27;2.00;;;1.90;;
6376;SDS011;3221;48.858;10.128;2023-12-20T06:34:55;2.10;;;1.90;;
6376;SDS011;3221;48.858;10.128;2023-12-20T06:37:22;1.97;;;1.87;;
6376;SDS011;3221;48.858;10.128;2023-12-20T06:39:49;2.23;;;2.10;;
6376;SDS011;3221;48.858;10.128;2023-12-20T06:42:16;2.30;;;2.10;;
6376;SDS011;3221;48.858;10.128;2023-12-20T06:44:43;4.50;;;3.23;;
6376;SDS011;3221;48.858;10.128;2023-12-20T06:47:10;6.73;;;3.33;;
6376;SDS011;3221;48.858;10.128;2023-12-20T06:49:37;6.77;;;4.80;;
6376;SDS011;3221;48.858;10.128;2023-12-20T06:52:04;8.53;;;5.17;;
6376;SDS011;3221;48.858;10.128;2023-12-20T06:54:31;7.17;;;4.30;;
6376;SDS011;3221;48.858;10.128;2023-12-20T06:57:00;8.00;;;5.47;;
6376;SDS011;3221;48.858;10.128;2023-12-20T06:59:29;5.87;;;4.73;;
6376;SDS011;3221;48.858;10.128;2023-12-20T07:01:56;4.10;;;3.67;;
6376;SDS011;3221;48.858;10.128;2023-12-20T07:04:23;3.97;;;3.30;;
6376;SDS011;3221;48.858;10.128;2023-12-20T07:06:50;4.90;;;4.30;;
6376;SDS011;3221;48.858;10.128;2023-12-20T07:09:18;4.23;;;3.83;;
6376;SDS011;3221;48.858;10.128;2023-12-20T07:11:45;4.27;;;3.87;;
6376;SDS011;3221;48.858;10.128;2023-12-20T07:14:12;4.03;;;3.63;;
6376;SDS011;3221;48.858;10.128;2023-12-20T07:16:39;4.27;;;3.80;;
6376;SDS011;3221;48.858;10.128;2023-12-20T07:19:06;5.30;;;4.80;;
6376;SDS011;3221;48.858;10.128;2023-12-20T07:21:34;10.43;;;9.03;;
6376;SDS011;3221;48.858;10.128;2023-12-20T07:24:01;8.53;;;7.50;;
6376;SDS011;3221;48.858;10.128;2023-12-20T07:26:28;8.60;;;7.70;;
6376;SDS011;3221;48.858;10.128;2023-12-20T07:28:54;7.40;;;6.70;;
6376;SDS011;3221;48.858;10.128;2023-12-20T07:31:21;6.77;;;5.30;;
6376;SDS011;3221;48.858;10.128;2023-12-20T07:33:50;4.67;;;4.27;;
6376;SDS011;3221;48.858;10.128;2023-12-20T07:36:17;4.00;;;3.20;;
6376;SDS011;3221;48.858;10.128;2023-12-20T07:38:45;3.73;;;3.30;;
6376;SDS011;3221;48.858;10.128;2023-12-20T07:41:12;4.20;;;3.80;;
6376;SDS011;3221;48.858;10.128;2023-12-20T07:43:39;3.90;;;3.60;;
6376;SDS011;3221;48.858;10.128;2023-12-20T07:46:06;4.00;;;3.60;;
6376;SDS011;3221;48.858;10.128;2023-12-20T07:48:34;3.33;;;3.03;;
6376;SDS011;3221;48.858;10.128;2023-12-20T07:51:02;3.10;;;2.90;;
6376;SDS011;3221;48.858;10.128;2023-12-20T07:53:30;3.10;;;2.80;;
6376;SDS011;3221;48.858;10.128;2023-12-20T07:55:57;3.43;;;3.10;;
6376;SDS011;3221;48.858;10.128;2023-12-20T07:58:24;3.57;;;3.23;;
6376;SDS011;3221;48.858;10.128;2023-12-20T08:01:10;3.33;;;3.03;;
6376;SDS011;3221;48.858;10.128;2023-12-20T08:03:38;3.53;;;3.23;;
6376;SDS011;3221;48.858;10.128;2023-12-20T08:06:05;3.40;;;3.10;;
6376;SDS011;3221;48.858;10.128;2023-12-20T08:08:32;3.77;;;3.47;;
6376;SDS011;3221;48.858;10.128;2023-12-20T08:10:59;4.30;;;3.23;;
6376;SDS011;3221;48.858;10.128;2023-12-20T08:13:26;4.17;;;3.77;;
6376;SDS011;3221;48.858;10.128;2023-12-20T08:15:53;4.33;;;3.93;;
6376;SDS011;3221;48.858;10.128;2023-12-20T08:18:22;3.77;;;3.40;;
6376;SDS011;3221;48.858;10.128;2023-12-20T08:20:49;4.40;;;4.00;;
6376;SDS011;3221;48.858;10.128;2023-12-20T08:23:19;5.80;;;4.70;;
6376;SDS011;3221;48.858;10.128;2023-12-20T08:25:50;4.57;;;4.17;;
6376;SDS011;3221;48.858;10.128;2023-12-20T08:28:17;4.83;;;4.40;;
6376;SDS011;3221;48.858;10.128;2023-12-20T08:30:44;5.10;;;4.60;;
6376;SDS011;3221;48.858;10.128;2023-12-20T08:33:11;4.73;;;4.23;;
6376;SDS011;3221;48.858;10.128;2023-12-20T08:35:39;5.10;;;4.60;;
6376;SDS011;3221;48.858;10.128;2023-12-20T08:38:06;5.30;;;4.77;;
6376;SDS011;3221;48.858;10.128;2023-12-20T08:40:33;5.40;;;4.90;;
6376;SDS011;3221;48.858;10.128;2023-12-20T08:43:00;5.23;;;4.73;;
6376;SDS011;3221;48.858;10.128;2023-12-20T08:45:27;4.97;;;4.47;;
6376;SDS011;3221;48.858;10.128;2023-12-20T08:47:54;4.50;;;4.10;;
6376;SDS011;3221;48.858;10.128;2023-12-20T08:50:25;4.83;;;4.33;;
6376;SDS011;3221;48.858;10.128;2023-12-20T08:52:52;4.80;;;4.30;;
6376;SDS011;3221;48.858;10.128;2023-12-20T08:55:19;4.40;;;4.00;;
6376;SDS011;3221;48.858;10.128;2023-12-20T08:57:46;5.50;;;5.00;;
6376;SDS011;3221;48.858;10.128;2023-12-20T09:00:14;5.63;;;5.03;;
6376;SDS011;3221;48.858;10.128;2023-12-20T09:02:41;4.60;;;4.20;;
6376;SDS011;3221;48.858;10.128;2023-12-20T09:05:08;5.70;;;5.10;;
6376;SDS011;3221;48.858;10.128;2023-12-20T09:07:35;5.93;;;4.77;;
6376;SDS011;3221;48.858;10.128;2023-12-20T09:10:02;5.83;;;5.00;;
6376;SDS011;3221;48.858;10.128;2023-12-20T09:12:30;6.13;;;5.53;;
6376;SDS011;3221;48.858;10.128;2023-12-20T09:14:57;6.47;;;5.83;;
6376;SDS011;3221;48.858;10.128;2023-12-20T09:17:24;7.17;;;6.17;;
6376;SDS011;3221;48.858;10.128;2023-12-20T09:19:52;7.13;;;6.20;;
6376;SDS011;3221;48.858;10.128;2023-12-20T09:22:20;6.60;;;5.70;;
6376;SDS011;3221;48.858;10.128;2023-12-20T09:24:47;6.83;;;5.77;;
6376;SDS011;3221;48.858;10.128;2023-12-20T09:27:14;6.43;;;5.43;;
6376;SDS011;3221;48.858;10.128;2023-12-20T09:29:42;6.20;;;5.60;;
6376;SDS011;3221;48.858;10.128;2023-12-20T09:32:09;7.33;;;6.17;;
6376;SDS011;3221;48.858;10.128;2023-12-20T09:34:36;6.57;;;5.77;;
6376;SDS011;3221;48.858;10.128;2023-12-20T09:37:04;6.63;;;5.70;;
6376;SDS011;3221;48.858;10.128;2023-12-20T09:39:31;6.10;;;5.50;;
6376;SDS011;3221;48.858;10.128;2023-12-20T09:42:04;6.17;;;5.30;;
6376;SDS011;3221;48.858;10.128;2023-12-20T09:44:33;5.27;;;4.77;;
6376;SDS011;3221;48.858;10.128;2023-12-20T09:47:03;6.40;;;5.30;;
6376;SDS011;3221;48.858;10.128;2023-12-20T09:49:30;5.17;;;4.67;;
6376;SDS011;3221;48.858;10.128;2023-12-20T09:51:59;5.80;;;4.77;;
6376;SDS011;3221;48.858;10.128;2023-12-20T09:54:27;6.23;;;5.07;;
6376;SDS011;3221;48.858;10.128;2023-12-20T09:56:55;5.57;;;5.07;;
6376;SDS011;3221;48.858;10.128;2023-12-20T09:59:22;5.53;;;4.93;;
6376;SDS011;3221;48.858;10.128;2023-12-20T10:01:49;5.77;;;4.97;;
6376;SDS011;3221;48.858;10.128;2023-12-20T10:04:21;5.60;;;4.90;;
6376;SDS011;3221;48.858;10.128;2023-12-20T10:06:55;5.20;;;4.70;;
6376;SDS011;3221;48.858;10.128;2023-12-20T10:09:23;4.90;;;4.40;;
6376;SDS011;3221;48.858;10.128;2023-12-20T10:11:53;5.40;;;4.43;;
6376;SDS011;3221;48.858;10.128;2023-12-20T10:14:21;5.90;;;4.97;;
6376;SDS011;3221;48.858;10.128;2023-12-20T10:16:49;5.53;;;4.50;;
6376;SDS011;3221;48.858;10.128;2023-12-20T10:19:16;4.83;;;4.30;;
6376;SDS011;3221;48.858;10.128;2023-12-20T10:21:44;4.47;;;3.97;;
6376;SDS011;3221;48.858;10.128;2023-12-20T10:24:16;4.70;;;4.30;;
6376;SDS011;3221;48.858;10.128;2023-12-20T10:26:44;6.43;;;4.40;;
6376;SDS011;3221;48.858;10.128;2023-12-20T10:29:11;4.50;;;4.10;;
6376;SDS011;3221;48.858;10.128;2023-12-20T10:31:38;4.77;;;4.17;;
6376;SDS011;3221;48.858;10.128;2023-12-20T10:34:05;5.60;;;3.93;;
6376;SDS011;3221;48.858;10.128;2023-12-20T10:36:32;5.20;;;4.40;;
6376;SDS011;3221;48.858;10.128;2023-12-20T10:39:00;4.47;;;3.93;;
6376;SDS011;3221;48.858;10.128;2023-12-20T10:41:31;4.97;;;4.27;;
6376;SDS011;3221;48.858;10.128;2023-12-20T10:43:59;6.20;;;3.83;;
6376;SDS011;3221;48.858;10.128;2023-12-20T10:46:33;5.73;;;4.07;;
6376;SDS011;3221;48.858;10.128;2023-12-20T10:49:04;5.50;;;3.60;;
6376;SDS011;3221;48.858;10.128;2023-12-20T10:51:31;5.20;;;3.67;;
6376;SDS011;3221;48.858;10.128;2023-12-20T10:54:00;4.53;;;3.47;;
6376;SDS011;3221;48.858;10.128;2023-12-20T10:56:27;4.83;;;3.50;;
6376;SDS011;3221;48.858;10.128;2023-12-20T10:58:59;4.10;;;3.50;;
6376;SDS011;3221;48.858;10.128;2023-12-20T11:01:29;4.40;;;3.60;;
6376;SDS011;3221;48.858;10.128;2023-12-20T11:03:57;4.80;;;3.70;;
6376;SDS011;3221;48.858;10.128;2023-12-20T11:06:43;5.80;;;3.83;;
6376;SDS011;3221;48.858;10.128;2023-12-20T11:09:26;5.20;;;3.97;;
6376;SDS011;3221;48.858;10.128;2023-12-20T11:17:13;4.70;;;4.07;;
6376;SDS011;3221;48.858;10.128;2023-12-20T11:22:31;5.90;;;4.07;;
6376;SDS011;3221;48.858;10.128;2023-12-20T11:25:03;6.17;;;3.83;;
6376;SDS011;3221;48.858;10.128;2023-12-20T11:27:33;5.23;;;3.80;;
6376;SDS011;3221;48.858;10.128;2023-12-20T11:30:00;6.33;;;4.10;;
6376;SDS011;3221;48.858;10.128;2023-12-20T11:32:35;7.10;;;4.33;;
6376;SDS011;3221;48.858;10.128;2023-12-20T11:37:37;6.80;;;4.03;;
6376;SDS011;3221;48.858;10.128;2023-12-20T11:40:14;5.07;;;3.73;;
6376;SDS011;3221;48.858;10.128;2023-12-20T11:42:43;4.63;;;3.30;;
6376;SDS011;3221;48.858;10.128;2023-12-20T11:45:15;5.10;;;3.27;;
6376;SDS011;3221;48.858;10.128;2023-12-20T11:47:46;4.53;;;2.97;;
6376;SDS011;3221;48.858;10.128;2023-12-20T11:50:20;6.10;;;3.40;;
6376;SDS011;3221;48.858;10.128;2023-12-20T11:52:49;5.33;;;3.23;;
6376;SDS011;3221;48.858;10.128;2023-12-20T11:55:17;7.43;;;3.30;;
6376;SDS011;3221;48.858;10.128;2023-12-20T11:57:45;6.40;;;3.43;;
6376;SDS011;3221;48.858;10.128;2023-12-20T12:00:13;7.70;;;3.47;;
6376;SDS011;3221;48.858;10.128;2023-12-20T12:02:40;5.53;;;3.10;;
6376;SDS011;3221;48.858;10.128;2023-12-20T12:05:09;6.33;;;2.90;;
6376;SDS011;3221;48.858;10.128;2023-12-20T12:07:36;6.23;;;3.20;;
6376;SDS011;3221;48.858;10.128;2023-12-20T12:10:03;8.77;;;3.03;;
6376;SDS011;3221;48.858;10.128;2023-12-20T12:12:30;5.53;;;3.23;;
6376;SDS011;3221;48.858;10.128;2023-12-20T12:14:59;7.23;;;3.03;;
6376;SDS011;3221;48.858;10.128;2023-12-20T12:17:25;5.80;;;2.83;;
6376;SDS011;3221;48.858;10.128;2023-12-20T12:20:01;6.73;;;3.30;;
6376;SDS011;3221;48.858;10.128;2023-12-20T12:22:32;5.87;;;3.40;;
6376;SDS011;3221;48.858;10.128;2023-12-20T12:25:09;7.70;;;3.37;;
6376;SDS011;3221;48.858;10.128;2023-12-20T12:27:39;5.73;;;3.07;;
6376;SDS011;3221;48.858;10.128;2023-12-20T12:30:07;5.50;;;3.50;;
6376;SDS011;3221;48.858;10.128;2023-12-20T12:32:36;6.67;;;3.20;;
6376;SDS011;3221;48.858;10.128;2023-12-20T12:35:04;7.33;;;3.33;;
6376;SDS011;3221;48.858;10.128;2023-12-20T12:37:36;6.70;;;3.40;;
6376;SDS011;3221;48.858;10.128;2023-12-20T12:40:06;6.53;;;3.27;;
6376;SDS011;3221;48.858;10.128;2023-12-20T12:42:39;8.27;;;3.40;;
6376;SDS011;3221;48.858;10.128;2023-12-20T12:45:07;7.13;;;3.37;;
6376;SDS011;3221;48.858;10.128;2023-12-20T12:47:34;5.63;;;2.73;;
6376;SDS011;3221;48.858;10.128;2023-12-20T12:50:02;7.93;;;3.60;;
6376;SDS011;3221;48.858;10.128;2023-12-20T12:52:30;6.77;;;3.17;;
6376;SDS011;3221;48.858;10.128;2023-12-20T12:54:57;6.80;;;3.50;;
6376;SDS011;3221;48.858;10.128;2023-12-20T12:57:24;7.00;;;3.83;;
6376;SDS011;3221;48.858;10.128;2023-12-20T12:59:51;5.73;;;3.20;;
6376;SDS011;3221;48.858;10.128;2023-12-20T13:02:18;6.23;;;3.20;;
6376;SDS011;3221;48.858;10.128;2023-12-20T13:04:45;6.80;;;2.70;;
6376;SDS011;3221;48.858;10.128;2023-12-20T13:07:12;7.97;;;2.80;;
6376;SDS011;3221;48.858;10.128;2023-12-20T13:09:39;6.87;;;3.17;;
6376;SDS011;3221;48.858;10.128;2023-12-20T13:12:06;7.17;;;3.10;;
6376;SDS011;3221;48.858;10.128;2023-12-20T13:14:34;5.93;;;3.10;;
6376;SDS011;3221;48.858;10.128;2023-12-20T13:17:03;9.13;;;3.20;;
6376;SDS011;3221;48.858;10.128;2023-12-20T13:19:30;13.47;;;3.60;;
6376;SDS011;3221;48.858;10.128;2023-12-20T13:21:57;19.43;;;6.27;;
6376;SDS011;3221;48.858;10.128;2023-12-20T13:24:24;22.20;;;5.50;;
6376;SDS011;3221;48.858;10.128;2023-12-20T13:26:51;32.30;;;5.50;;
6376;SDS011;3221;48.858;10.128;2023-12-20T13:29:19;18.83;;;4.50;;
6376;SDS011;3221;48.858;10.128;2023-12-20T13:31:46;21.40;;;5.47;;
6376;SDS011;3221;48.858;10.128;2023-12-20T13:34:13;14.90;;;4.43;;
6376;SDS011;3221;48.858;10.128;2023-12-20T13:36:41;20.67;;;6.07;;
6376;SDS011;3221;48.858;10.128;2023-12-20T13:39:12;21.40;;;5.30;;
6376;SDS011;3221;48.858;10.128;2023-12-20T13:41:39;6.40;;;3.70;;
6376;SDS011;3221;48.858;10.128;2023-12-20T13:44:06;10.73;;;4.23;;
6376;SDS011;3221;48.858;10.128;2023-12-20T13:46:33;14.50;;;7.50;;
6376;SDS011;3221;48.858;10.128;2023-12-20T13:49:03;15.53;;;6.90;;
6376;SDS011;3221;48.858;10.128;2023-12-20T13:51:31;10.20;;;6.17;;
6376;SDS011;3221;48.858;10.128;2023-12-20T13:53:58;13.50;;;7.77;;
6376;SDS011;3221;48.858;10.128;2023-12-20T13:56:25;11.07;;;6.53;;
6376;SDS011;3221;48.858;10.128;2023-12-20T13:58:52;11.87;;;6.53;;
6376;SDS011;3221;48.858;10.128;2023-12-20T14:01:19;9.70;;;6.13;;
6376;SDS011;3221;48.858;10.128;2023-12-20T14:03:46;16.00;;;8.40;;
6376;SDS011;3221;48.858;10.128;2023-12-20T14:06:13;13.90;;;7.50;;
6376;SDS011;3221;48.858;10.128;2023-12-20T14:08:41;8.93;;;5.87;;
6376;SDS011;3221;48.858;10.128;2023-12-20T14:11:09;9.47;;;5.20;;
6376;SDS011;3221;48.858;10.128;2023-12-20T14:13:36;8.67;;;5.27;;
6376;SDS011;3221;48.858;10.128;2023-12-20T14:16:03;8.03;;;4.93;;
6376;SDS011;3221;48.858;10.128;2023-12-20T14:18:30;8.20;;;5.03;;
6376;SDS011;3221;48.858;10.128;2023-12-20T14:20:57;10.90;;;5.63;;
6376;SDS011;3221;48.858;10.128;2023-12-20T14:23:24;8.13;;;4.83;;
6376;SDS011;3221;48.858;10.128;2023-12-20T14:25:52;8.27;;;5.30;;
6376;SDS011;3221;48.858;10.128;2023-12-20T14:28:19;7.47;;;4.50;;
6376;SDS011;3221;48.858;10.128;2023-12-20T14:30:46;9.13;;;4.37;;
6376;SDS011;3221;48.858;10.128;2023-12-20T14:33:13;7.07;;;4.20;;
6376;SDS011;3221;48.858;10.128;2023-12-20T14:35:40;9.27;;;4.63;;
6376;SDS011;3221;48.858;10.128;2023-12-20T14:38:11;8.07;;;4.87;;
6376;SDS011;3221;48.858;10.128;2023-12-20T14:40:41;8.97;;;4.27;;
6376;SDS011;3221;48.858;10.128;2023-12-20T14:43:08;7.27;;;4.97;;
6376;SDS011;3221;48.858;10.128;2023-12-20T14:45:35;7.37;;;4.50;;
6376;SDS011;3221;48.858;10.128;2023-12-20T14:48:03;6.50;;;4.00;;
6376;SDS011;3221;48.858;10.128;2023-12-20T14:50:31;7.13;;;5.33;;
6376;SDS011;3221;48.858;10.128;2023-12-20T14:52:58;8.87;;;5.00;;
6376;SDS011;3221;48.858;10.128;2023-12-20T14:55:26;8.57;;;5.30;;
6376;SDS011;3221;48.858;10.128;2023-12-20T14:57:56;8.80;;;4.83;;
6376;SDS011;3221;48.858;10.128;2023-12-20T15:00:23;9.70;;;5.67;;
6376;SDS011;3221;48.858;10.128;2023-12-20T15:02:50;8.43;;;4.87;;
6376;SDS011;3221;48.858;10.128;2023-12-20T15:05:17;8.83;;;4.67;;
6376;SDS011;3221;48.858;10.128;2023-12-20T15:07:44;10.07;;;4.83;;
6376;SDS011;3221;48.858;10.128;2023-12-20T15:10:12;6.93;;;3.87;;
6376;SDS011;3221;48.858;10.128;2023-12-20T15:12:39;7.03;;;4.00;;
6376;SDS011;3221;48.858;10.128;2023-12-20T15:15:06;7.27;;;4.03;;